South Oroville, California
Current Conditions -  °F | °C
As of 6:53 PM on Monday 22 Dec 2014 (Local Time) from KOVE Reporting Station
Clear Clear  
Wind Chill: 58°   Ceiling: Unl
Heat Index: 58°   Visibility: 10mi
Dew Point: 53°   Wind: 5mph
Humidity: 84%   Direction: 40°NE
Pressure: 30.18"   Gusts: NA
Location:  39.5324°N, 121.648°W
Report Text: KOVE 230253Z AUTO 04004KT 10SM CLR 14/12 A3018 RMK AO2 SLP223 T01440117 53001
Loading
Personal Weather Stations






























Interactive Weather Map New forecast layout! Learn more

10-Day Weather Forecast

Advertisements
Track Severe Weather on mobile